createdAt,value
2023-01-05T00:04:53.292Z,2.77
2023-01-05T00:07:25.055Z,2.08
2023-01-05T00:09:58.620Z,2.52
2023-01-05T00:12:47.504Z,3.85
2023-01-05T00:15:37.509Z,2.12
2023-01-05T00:18:27.885Z,1.95
2023-01-05T00:21:16.434Z,2.58
2023-01-05T00:23:48.471Z,2.98
2023-01-05T00:26:23.328Z,1.87
2023-01-05T00:28:56.266Z,1.87
2023-01-05T00:31:30.299Z,1.75
2023-01-05T00:34:02.491Z,2.58
2023-01-05T00:36:34.502Z,2.05
2023-01-05T00:39:08.046Z,1.72
2023-01-05T00:41:39.005Z,1.50
2023-01-05T00:44:12.788Z,1.10
2023-01-05T00:46:46.397Z,3.58
2023-01-05T00:49:18.759Z,3.15
2023-01-05T00:51:50.103Z,2.10
2023-01-05T00:54:22.245Z,1.67
2023-01-05T00:56:54.226Z,1.12
2023-01-05T00:59:27.884Z,1.45
2023-01-05T01:02:00.033Z,1.20
2023-01-05T01:04:36.467Z,2.15
2023-01-05T01:07:07.759Z,2.05
2023-01-05T01:09:39.273Z,1.00
2023-01-05T01:12:09.851Z,1.12
2023-01-05T01:14:42.157Z,2.22
2023-01-05T01:17:15.704Z,0.70
2023-01-05T01:19:47.799Z,1.37
2023-01-05T01:22:19.737Z,0.57
2023-01-05T01:24:52.821Z,1.10
2023-01-05T01:27:24.937Z,0.90
2023-01-05T01:29:55.461Z,1.92
2023-01-05T01:32:27.384Z,1.22
2023-01-05T01:34:59.493Z,1.25
2023-01-05T01:37:30.061Z,3.58
2023-01-05T01:40:02.138Z,1.42
2023-01-05T01:42:32.659Z,2.25
2023-01-05T01:45:06.807Z,1.50
2023-01-05T01:47:43.756Z,2.25
2023-01-05T01:50:25.756Z,1.27
2023-01-05T01:53:02.003Z,1.52
2023-01-05T01:55:34.288Z,3.45
2023-01-05T01:58:07.745Z,1.60
2023-01-05T02:00:39.834Z,1.37
2023-01-05T02:03:12.889Z,2.15
2023-01-05T02:05:43.858Z,1.22
2023-01-05T02:08:18.685Z,1.62
2023-01-05T02:11:02.379Z,1.60
2023-01-05T02:13:57.658Z,2.58
2023-01-05T02:16:55.752Z,1.37
2023-01-05T02:19:41.344Z,2.62
2023-01-05T02:22:39.315Z,1.50
2023-01-05T02:25:24.708Z,1.15
2023-01-05T02:28:17.647Z,2.67
2023-01-05T02:31:11.094Z,2.87
2023-01-05T02:33:48.923Z,1.82
2023-01-05T02:36:31.148Z,0.98
2023-01-05T02:39:20.008Z,1.70
2023-01-05T02:42:02.518Z,2.33
2023-01-05T02:44:35.596Z,0.78
2023-01-05T02:47:30.104Z,1.85
2023-01-05T02:50:05.087Z,1.10
2023-01-05T02:52:42.780Z,1.67
2023-01-05T02:55:17.502Z,2.40
2023-01-05T02:57:56.679Z,0.75
2023-01-05T03:00:45.281Z,1.42
2023-01-05T03:03:21.554Z,1.02
2023-01-05T03:05:56.628Z,0.98
2023-01-05T03:08:33.093Z,1.77
2023-01-05T03:11:24.257Z,0.80
2023-01-05T03:14:17.369Z,1.80
2023-01-05T03:16:52.179Z,2.33
2023-01-05T03:19:43.275Z,2.40
2023-01-05T03:22:49.745Z,2.33
2023-01-05T03:25:40.885Z,0.80
2023-01-05T03:28:39.316Z,1.32
2023-01-05T03:31:30.570Z,2.42
2023-01-05T03:34:24.861Z,1.65
2023-01-05T03:37:04.401Z,1.12
2023-01-05T03:39:36.924Z,1.40
2023-01-05T03:42:09.245Z,1.90
2023-01-05T03:44:49.811Z,1.87
2023-01-05T03:50:17.680Z,2.05
2023-01-05T03:52:48.177Z,2.17
2023-01-05T03:55:19.092Z,1.35
2023-01-05T03:57:49.575Z,2.22
2023-01-05T04:00:20.942Z,3.33
2023-01-05T04:02:51.529Z,1.98
2023-01-05T04:05:23.621Z,2.12
2023-01-05T04:07:55.428Z,2.52
2023-01-05T04:10:27.086Z,2.15
2023-01-05T04:13:00.281Z,1.20
2023-01-05T04:15:32.290Z,2.90
2023-01-05T04:18:05.734Z,1.77
2023-01-05T04:20:36.508Z,2.52
2023-01-05T04:23:11.346Z,2.02
2023-01-05T04:25:42.645Z,2.00
2023-01-05T04:28:13.732Z,2.00
2023-01-05T04:30:54.253Z,2.30
2023-01-05T04:33:26.715Z,2.25
2023-01-05T04:35:58.684Z,2.00
2023-01-05T04:38:33.460Z,2.10
2023-01-05T04:41:05.622Z,1.92
2023-01-05T04:43:38.659Z,3.45
2023-01-05T04:46:12.501Z,3.40
2023-01-05T04:48:44.775Z,1.10
2023-01-05T04:51:15.361Z,2.20
2023-01-05T04:53:45.928Z,3.27
2023-01-05T04:56:18.468Z,2.98
2023-01-05T04:58:50.433Z,1.52
2023-01-05T05:01:22.525Z,1.67
2023-01-05T05:03:54.724Z,3.83
2023-01-05T05:06:25.418Z,3.52
2023-01-05T05:08:58.577Z,1.60
2023-01-05T05:11:29.521Z,3.05
2023-01-05T05:14:01.915Z,1.60
2023-01-05T05:16:33.906Z,3.10
2023-01-05T05:19:07.294Z,2.20
2023-01-05T05:21:37.874Z,2.15
2023-01-05T05:24:10.559Z,2.33
2023-01-05T05:26:41.644Z,2.62
2023-01-05T05:29:13.061Z,2.75
2023-01-05T05:31:45.243Z,2.20
2023-01-05T05:34:18.035Z,2.50
2023-01-05T05:36:50.101Z,2.92
2023-01-05T05:39:21.755Z,2.58
2023-01-05T05:41:52.517Z,4.55
2023-01-05T05:44:24.190Z,3.45
2023-01-05T05:46:55.972Z,3.83
2023-01-05T05:49:26.451Z,3.33
2023-01-05T05:51:56.912Z,3.90
2023-01-05T05:54:27.402Z,3.50
2023-01-05T05:56:57.983Z,2.27
2023-01-05T05:59:28.539Z,2.33
2023-01-05T06:02:00.157Z,3.35
2023-01-05T06:04:31.138Z,2.83
2023-01-05T06:07:02.672Z,2.55
2023-01-05T06:09:34.513Z,4.00
2023-01-05T06:12:05.463Z,3.40
2023-01-05T06:14:36.113Z,4.60
2023-01-05T06:17:07.493Z,3.17
2023-01-05T06:19:37.993Z,2.70
2023-01-05T06:22:08.988Z,3.42
2023-01-05T06:24:39.541Z,3.37
2023-01-05T06:27:11.118Z,2.50
2023-01-05T06:29:41.651Z,4.83
2023-01-05T06:32:12.095Z,3.25
2023-01-05T06:34:42.611Z,4.33
2023-01-05T06:37:13.066Z,2.72
2023-01-05T06:39:43.921Z,4.00
2023-01-05T06:42:16.930Z,4.20
2023-01-05T06:44:46.701Z,6.17
2023-01-05T06:47:17.134Z,6.05
2023-01-05T06:49:47.928Z,4.75
2023-01-05T06:52:19.802Z,6.40
2023-01-05T06:54:51.700Z,5.47
2023-01-05T06:57:22.254Z,4.83
2023-01-05T06:59:52.735Z,5.85
2023-01-05T07:02:23.216Z,4.03
2023-01-05T07:04:53.769Z,4.20
2023-01-05T07:07:25.419Z,5.08
2023-01-05T07:09:55.898Z,4.17
2023-01-05T07:12:26.613Z,5.05
2023-01-05T07:15:07.556Z,4.20
2023-01-05T07:17:39.118Z,4.55
2023-01-05T07:20:11.560Z,5.37
2023-01-05T07:22:42.082Z,7.47
2023-01-05T07:25:12.638Z,5.22
2023-01-05T07:27:43.103Z,4.37
2023-01-05T07:30:14.552Z,6.47
2023-01-05T07:32:45.015Z,6.25
2023-01-05T07:35:15.593Z,6.78
2023-01-05T07:37:46.068Z,5.87
2023-01-05T07:40:16.557Z,5.22
2023-01-05T07:42:55.752Z,5.37
2023-01-05T07:45:28.924Z,5.60
2023-01-05T07:48:00.769Z,3.95
2023-01-05T07:50:32.400Z,4.40
2023-01-05T07:53:02.820Z,4.70
2023-01-05T07:55:34.591Z,4.90
2023-01-05T07:58:05.160Z,5.80
2023-01-05T08:00:35.665Z,4.45
2023-01-05T08:03:06.152Z,5.50
2023-01-05T08:05:37.430Z,6.25
2023-01-05T08:08:08.073Z,5.55
2023-01-05T08:10:40.954Z,6.17
2023-01-05T08:13:31.469Z,4.97
2023-01-05T08:16:02.153Z,6.33
2023-01-05T08:18:32.725Z,5.47
2023-01-05T08:21:06.078Z,6.80
2023-01-05T08:23:37.413Z,5.60
2023-01-05T08:26:12.701Z,6.20
2023-01-05T08:28:43.742Z,5.42
2023-01-05T08:31:24.970Z,7.00
2023-01-05T08:33:58.468Z,6.70
2023-01-05T08:36:29.266Z,6.12
2023-01-05T08:39:01.779Z,7.17
2023-01-05T08:41:39.886Z,7.60
2023-01-05T08:44:15.823Z,5.40
2023-01-05T08:46:46.237Z,6.80
2023-01-05T08:49:16.690Z,5.92
2023-01-05T08:51:47.174Z,7.15
2023-01-05T08:54:17.880Z,6.90
2023-01-05T08:56:49.935Z,6.92
2023-01-05T08:59:21.513Z,8.20
2023-01-05T09:01:52.355Z,8.08
2023-01-05T09:04:22.993Z,12.30
2023-01-05T09:06:53.530Z,8.60
2023-01-05T09:09:24.674Z,11.00
2023-01-05T09:11:56.247Z,8.28
2023-01-05T09:14:26.755Z,7.37
2023-01-05T09:17:07.026Z,7.65
2023-01-05T09:19:29.386Z,6.25
2023-01-05T09:21:59.893Z,6.12
2023-01-05T09:24:30.364Z,4.25
2023-01-05T09:27:00.865Z,7.22
2023-01-05T09:29:32.684Z,6.70
2023-01-05T09:32:03.646Z,5.72
2023-01-05T09:34:35.282Z,6.72
2023-01-05T09:37:07.123Z,7.85
2023-01-05T09:39:38.959Z,5.62
2023-01-05T09:42:12.297Z,3.62
2023-01-05T09:44:45.751Z,5.47
2023-01-05T09:47:35.375Z,4.72
2023-01-05T09:50:10.140Z,3.90
2023-01-05T09:52:41.117Z,5.47
2023-01-05T09:55:18.735Z,8.00
2023-01-05T09:58:01.073Z,4.42
2023-01-05T10:00:32.693Z,4.92
2023-01-05T10:04:01.759Z,6.33
2023-01-05T10:05:55.344Z,5.42
2023-01-05T10:08:37.923Z,6.62
2023-01-05T10:11:29.128Z,5.00
2023-01-05T10:14:20.627Z,6.80
2023-01-05T10:16:57.831Z,5.35
2023-01-05T10:19:24.865Z,5.90
2023-01-05T10:22:05.413Z,5.72
2023-01-05T10:25:01.963Z,3.47
2023-01-05T10:27:44.550Z,4.70
2023-01-05T10:30:26.855Z,5.53
2023-01-05T10:36:05.294Z,4.15
2023-01-05T10:38:38.776Z,4.15
2023-01-05T10:41:27.228Z,3.92
2023-01-05T10:44:06.419Z,4.78
2023-01-05T10:46:42.846Z,3.83
2023-01-05T10:49:15.018Z,2.98
2023-01-05T10:51:51.344Z,4.22
2023-01-05T10:54:38.167Z,5.10
2023-01-05T10:57:35.820Z,2.92
2023-01-05T11:00:19.836Z,4.75
2023-01-05T11:03:06.471Z,2.17
2023-01-05T11:05:39.879Z,2.72
2023-01-05T11:08:25.194Z,2.27
2023-01-05T11:11:07.430Z,3.77
2023-01-05T11:13:43.602Z,3.95
2023-01-05T11:16:17.101Z,3.27
2023-01-05T11:19:11.797Z,3.67
2023-01-05T11:21:45.565Z,5.97
2023-01-05T11:24:28.324Z,3.25
2023-01-05T11:27:05.880Z,2.87
2023-01-05T11:29:36.459Z,4.55
2023-01-05T11:32:09.372Z,5.90
2023-01-05T11:34:48.052Z,4.35
2023-01-05T11:37:25.504Z,3.47
2023-01-05T23:40:05.397Z,10.15
2023-01-05T23:42:46.636Z,12.40
2023-01-05T23:45:17.723Z,10.80
2023-01-05T23:47:48.232Z,8.28
2023-01-05T23:50:20.008Z,5.30
2023-01-05T23:52:50.694Z,5.65
2023-01-05T23:55:21.164Z,8.38
2023-01-05T23:57:51.630Z,6.50
